Terminal Aerodrome Forecast
Issued by NWS

Home | Current Version | Previous Version | Text Only | Print | Product List | Glossary On
Versions: 1 2 3 4 5 6 7 8 9 10 11 12 13 14 15 16 17 18 19
000
FTUS43 KLSX 250500
TAFUIN
TAF
KUIN 250530Z 2506/2606 16007KT P6SM SKC
      TEMPO 2510/2513 3SM BR
     FM251400 20007KT P6SM SCT250
     FM260100 16005KT P6SM SCT250=

USA.gov is the U.S. government's official web portal to all federal, state and local government web resources and services.